createdAt,value
2023-06-03T00:00:55.880Z,100921.87
2023-06-03T00:03:44.841Z,100921.80
2023-06-03T00:06:13.386Z,100917.02
2023-06-03T00:08:40.481Z,100917.06
2023-06-03T00:11:07.309Z,100916.52
2023-06-03T00:13:34.591Z,100918.61
2023-06-03T00:16:01.217Z,100918.90
2023-06-03T00:18:27.899Z,100918.45
2023-06-03T00:20:55.816Z,100918.33
2023-06-03T00:23:22.398Z,100919.59
2023-06-03T00:25:48.888Z,100921.27
2023-06-03T00:28:15.627Z,100919.80
2023-06-03T00:30:42.210Z,100916.54
2023-06-03T00:33:08.619Z,100916.52
2023-06-03T00:35:36.770Z,100917.23
2023-06-03T00:38:03.931Z,100920.33
2023-06-03T00:40:32.182Z,100917.88
2023-06-03T00:42:59.870Z,100918.94
2023-06-03T00:45:26.305Z,100921.86
2023-06-03T00:47:52.964Z,100923.72
2023-06-03T00:50:19.403Z,100923.23
2023-06-03T00:52:47.038Z,100926.34
2023-06-03T00:55:13.626Z,100923.86
2023-06-03T00:57:40.113Z,100927.23
2023-06-03T01:00:07.397Z,100924.55
2023-06-03T01:02:36.933Z,100929.20
2023-06-03T01:05:08.493Z,100926.16
2023-06-03T01:07:47.620Z,100927.56
2023-06-03T01:10:46.734Z,100931.14
2023-06-03T01:13:37.071Z,100931.91
2023-06-03T01:16:05.515Z,100932.84
2023-06-03T01:18:35.596Z,100932.98
2023-06-03T01:21:03.766Z,100936.98
2023-06-03T01:23:34.278Z,100941.52
2023-06-03T01:26:04.969Z,100944.41
2023-06-03T01:28:31.791Z,100949.36
2023-06-03T01:31:02.063Z,100951.52
2023-06-03T01:33:29.999Z,100954.13
2023-06-03T01:35:58.883Z,100952.52
2023-06-03T01:38:26.146Z,100955.02
2023-06-03T01:40:53.557Z,100959.17
2023-06-03T01:43:20.644Z,100964.02
2023-06-03T01:45:47.306Z,100963.70
2023-06-03T01:48:14.626Z,100969.81
2023-06-03T01:50:44.649Z,100967.99
2023-06-03T01:53:12.733Z,100971.75
2023-06-03T01:55:39.510Z,100969.77
2023-06-03T01:58:06.073Z,100973.70
2023-06-03T02:00:32.703Z,100978.84
2023-06-03T02:02:59.220Z,100983.59
2023-06-03T02:05:25.772Z,100987.13
2023-06-03T02:07:52.112Z,100984.59
2023-06-03T02:10:18.689Z,100986.32
2023-06-03T02:12:44.993Z,100987.59
2023-06-03T02:15:11.395Z,100986.09
2023-06-03T02:17:37.822Z,100989.23
2023-06-03T02:20:08.931Z,100987.89
2023-06-03T02:22:35.817Z,100989.64
2023-06-03T02:25:05.966Z,100993.70
2023-06-03T02:27:32.356Z,100994.84
2023-06-03T02:29:58.859Z,100997.77
2023-06-03T02:32:25.252Z,101000.83
2023-06-03T02:34:52.108Z,101003.20
2023-06-03T02:37:18.470Z,101006.06
2023-06-03T02:39:45.312Z,101012.65
2023-06-03T02:42:12.333Z,101012.33
2023-06-03T02:44:39.286Z,101011.60
2023-06-03T02:47:06.429Z,101017.15
2023-06-03T02:49:33.989Z,101020.41
2023-06-03T02:52:00.934Z,101020.55
2023-06-03T02:54:27.419Z,101020.50
2023-06-03T02:56:53.806Z,101022.92
2023-06-03T02:59:20.238Z,101025.80
2023-06-03T03:01:46.806Z,101020.46
2023-06-03T03:04:13.235Z,101019.62
2023-06-03T03:06:41.128Z,101018.38
2023-06-03T03:09:08.146Z,101022.01
2023-06-03T03:11:34.865Z,101021.37
2023-06-03T03:14:02.608Z,101019.67
2023-06-03T03:16:29.008Z,101022.58
2023-06-03T03:18:55.647Z,101022.73
2023-06-03T03:21:22.214Z,101029.34
2023-06-03T03:23:51.767Z,101030.84
2023-06-03T03:26:22.137Z,101034.27
2023-06-03T03:28:49.461Z,101040.08
2023-06-03T03:31:16.873Z,101042.03
2023-06-03T03:33:43.387Z,101046.23
2023-06-03T03:36:14.127Z,101044.85
2023-06-03T03:38:41.567Z,101050.69
2023-06-03T03:41:08.112Z,101051.83
2023-06-03T03:43:35.415Z,101056.21
2023-06-03T03:46:02.224Z,101064.52
2023-06-03T03:48:30.687Z,101069.52
2023-06-03T03:50:57.249Z,101072.28
2023-06-03T03:53:29.955Z,101075.58
2023-06-03T03:55:57.880Z,101078.98
2023-06-03T03:58:41.593Z,101076.73
2023-06-03T04:01:24.889Z,101076.95
2023-06-03T04:03:53.504Z,101074.27
2023-06-03T04:06:33.208Z,101079.60
2023-06-03T04:09:01.141Z,101081.06
2023-06-03T04:11:29.641Z,101080.73
2023-06-03T04:13:57.828Z,101083.43
2023-06-03T04:16:45.960Z,101088.59
2023-06-03T04:19:31.275Z,101088.86
2023-06-03T04:21:58.686Z,101089.92
2023-06-03T04:24:26.254Z,101090.59
2023-06-03T04:26:53.885Z,101093.27
2023-06-03T04:29:20.538Z,101090.88
2023-06-03T04:31:46.925Z,101095.82
2023-06-03T04:34:13.706Z,101094.34
2023-06-03T04:36:40.066Z,101098.45
2023-06-03T04:39:09.029Z,101102.84
2023-06-03T04:41:39.223Z,101101.50
2023-06-03T04:44:05.682Z,101111.05
2023-06-03T04:46:32.570Z,101108.94
2023-06-03T04:49:02.829Z,101109.30
2023-06-03T04:51:35.744Z,101112.80
2023-06-03T04:54:04.160Z,101113.34
2023-06-03T04:56:31.204Z,101116.23
2023-06-03T04:59:01.131Z,101123.28
2023-06-03T05:01:28.476Z,101125.09
2023-06-03T05:03:56.382Z,101128.98
2023-06-03T05:06:24.058Z,101127.69
2023-06-03T05:08:51.858Z,101129.52
2023-06-03T05:11:19.474Z,101128.63
2023-06-03T05:13:46.475Z,101130.88
2023-06-03T05:16:13.567Z,101133.33
2023-06-03T05:18:40.760Z,101140.73
2023-06-03T05:21:08.219Z,101140.10
2023-06-03T05:23:35.060Z,101140.02
2023-06-03T05:26:01.580Z,101138.98
2023-06-03T05:28:28.144Z,101139.79
2023-06-03T05:30:54.888Z,101141.95
2023-06-03T05:33:29.387Z,101139.66
2023-06-03T05:35:56.743Z,101141.27
2023-06-03T05:38:24.084Z,101139.84
2023-06-03T05:40:51.665Z,101139.36
2023-06-03T05:43:19.021Z,101145.80
2023-06-03T05:45:46.889Z,101144.97
2023-06-03T05:48:13.856Z,101146.55
2023-06-03T05:50:48.969Z,101146.65
2023-06-03T05:53:15.568Z,101150.84
2023-06-03T05:55:43.344Z,101151.33
2023-06-03T05:58:09.698Z,101154.23
2023-06-03T06:00:37.241Z,101156.83
2023-06-03T06:03:03.764Z,101159.52
2023-06-03T06:05:30.231Z,101167.49
2023-06-03T06:07:56.966Z,101167.09
2023-06-03T06:10:23.485Z,101166.30
2023-06-03T06:12:49.878Z,101166.20
2023-06-03T06:15:16.260Z,101170.30
2023-06-03T06:17:45.991Z,101171.52
2023-06-03T06:20:12.852Z,101173.52
2023-06-03T06:22:39.816Z,101175.53
2023-06-03T06:25:07.543Z,101178.60
2023-06-03T06:27:34.977Z,101179.59
2023-06-03T06:30:03.327Z,101177.98
2023-06-03T06:39:36.251Z,101182.36
2023-06-03T06:42:13.043Z,101180.69
2023-06-03T06:44:49.323Z,101185.41
2023-06-03T06:47:25.593Z,101185.62
2023-06-03T06:50:00.488Z,101187.99
2023-06-03T06:52:30.921Z,101186.08
2023-06-03T06:55:00.382Z,101189.12
2023-06-03T06:57:30.032Z,101188.59
2023-06-03T06:59:57.922Z,101183.36
2023-06-03T07:02:26.792Z,101182.45
2023-06-03T07:04:54.694Z,101179.78
2023-06-03T07:07:22.445Z,101178.25
2023-06-03T07:09:50.675Z,101174.88
2023-06-03T07:12:18.614Z,101183.04
2023-06-03T07:14:46.535Z,101180.82
2023-06-03T07:17:15.572Z,101182.21
2023-06-03T07:19:43.310Z,101180.02
2023-06-03T07:22:11.095Z,101178.77
2023-06-03T07:24:40.113Z,101178.68
2023-06-03T07:27:09.087Z,101180.38
2023-06-03T07:29:39.587Z,101181.40
2023-06-03T07:32:09.221Z,101184.41
2023-06-03T07:34:38.136Z,101181.02
2023-06-03T07:37:12.921Z,101180.56
2023-06-03T07:39:42.452Z,101183.80
2023-06-03T07:42:23.097Z,101185.57
2023-06-03T07:44:51.165Z,101180.75
2023-06-03T07:47:19.114Z,101179.64
2023-06-03T07:49:49.378Z,101176.80
2023-06-03T07:52:19.936Z,101181.70
2023-06-03T07:54:48.487Z,101183.02
2023-06-03T07:57:17.154Z,101185.95
2023-06-03T07:59:56.447Z,101190.48
2023-06-03T08:02:24.847Z,101188.98
2023-06-03T08:04:57.421Z,101189.92
2023-06-03T08:07:26.421Z,101188.88
2023-06-03T08:09:54.442Z,101189.31
2023-06-03T08:12:32.655Z,101196.63
2023-06-03T08:15:02.539Z,101195.04
2023-06-03T08:17:42.228Z,101191.97
2023-06-03T08:20:11.462Z,101195.23
2023-06-03T08:22:46.200Z,101192.86
2023-06-03T08:25:14.576Z,101191.60
2023-06-03T08:27:42.475Z,101193.63
2023-06-03T08:30:14.151Z,101194.20
2023-06-03T08:32:43.253Z,101187.64
2023-06-03T08:35:17.929Z,101186.80
2023-06-03T08:37:46.134Z,101197.86
2023-06-03T08:40:18.192Z,101198.14
2023-06-03T08:42:48.782Z,101197.45
2023-06-03T08:45:19.186Z,101195.02
2023-06-03T08:48:02.115Z,101197.83
2023-06-03T08:50:30.086Z,101204.77
2023-06-03T08:52:59.345Z,101206.45
2023-06-03T08:55:27.952Z,101204.60
2023-06-03T08:58:03.594Z,101208.58
2023-06-03T09:00:31.867Z,101206.17
2023-06-03T09:03:00.258Z,101212.81
2023-06-03T09:05:29.177Z,101211.09
2023-06-03T09:07:57.873Z,101207.30
2023-06-03T09:10:27.407Z,101202.98
2023-06-03T09:12:58.829Z,101201.08
2023-06-03T09:15:27.456Z,101200.89
2023-06-03T09:17:55.288Z,101208.88
2023-06-03T09:20:24.915Z,101211.80
2023-06-03T09:22:53.780Z,101213.36
2023-06-03T09:25:21.600Z,101216.67
2023-06-03T09:27:49.558Z,101217.17
2023-06-03T09:30:20.433Z,101219.44
2023-06-03T09:32:48.287Z,101219.56
2023-06-03T09:35:16.450Z,101215.67
2023-06-03T09:37:59.456Z,101210.13
2023-06-03T09:40:32.631Z,101210.23
2023-06-03T09:43:00.930Z,101206.75
2023-06-03T09:45:30.661Z,101209.38
2023-06-03T09:47:59.743Z,101214.04
2023-06-03T09:50:30.111Z,101209.36
2023-06-03T09:52:58.962Z,101214.40
2023-06-03T09:55:37.665Z,101211.86
2023-06-03T09:58:10.013Z,101215.98
2023-06-03T10:01:00.397Z,101218.43
2023-06-03T10:04:16.318Z,101226.18
2023-06-03T10:07:15.834Z,101224.16
2023-06-03T10:09:51.176Z,101218.31
2023-06-03T10:12:34.117Z,101215.17
2023-06-03T10:15:04.866Z,101219.64
2023-06-03T10:17:47.681Z,101217.41
2023-06-03T10:20:34.425Z,101217.84
2023-06-03T10:23:06.528Z,101221.45
2023-06-03T10:25:58.343Z,101217.91
2023-06-03T10:28:38.364Z,101217.62
2023-06-03T10:31:14.322Z,101215.42
2023-06-03T10:33:42.685Z,101210.29
2023-06-03T10:36:13.221Z,101211.41
2023-06-03T10:38:41.778Z,101210.41
2023-06-03T10:41:12.201Z,101209.46
2023-06-03T10:43:43.185Z,101204.96
2023-06-03T10:46:13.389Z,101203.45
2023-06-03T10:48:45.425Z,101203.18
2023-06-03T10:51:48.149Z,101206.25
2023-06-03T10:54:31.430Z,101199.63
2023-06-03T10:57:07.823Z,101198.70
2023-06-03T10:59:44.684Z,101185.56
2023-06-03T11:02:13.699Z,101187.90
2023-06-03T11:04:42.020Z,101189.30
2023-06-03T11:07:42.465Z,101182.34
2023-06-03T11:10:37.013Z,101188.54
2023-06-03T11:21:52.972Z,101187.30
2023-06-03T11:24:39.443Z,101193.89
2023-06-03T11:27:13.519Z,101186.72
2023-06-03T11:29:47.132Z,101182.73
2023-06-03T11:32:16.212Z,101183.37
2023-06-03T11:34:48.755Z,101181.73
2023-06-03T11:37:21.048Z,101182.00
2023-06-03T11:40:08.682Z,101188.96
2023-06-03T11:42:45.786Z,101192.73
2023-06-03T11:45:22.762Z,101190.19
2023-06-03T11:47:51.045Z,101186.64
2023-06-03T11:50:20.548Z,101180.94
2023-06-03T11:52:50.666Z,101178.73
2023-06-03T11:55:25.497Z,101183.18
2023-06-03T11:57:53.585Z,101183.21
2023-06-03T12:00:21.782Z,101181.30
2023-06-03T12:02:49.853Z,101172.23
2023-06-03T12:05:19.012Z,101173.56
2023-06-03T12:08:05.935Z,101169.89
2023-06-03T12:10:42.048Z,101167.55
2023-06-03T12:13:12.522Z,101170.13
2023-06-03T12:15:50.007Z,101170.40
2023-06-03T12:18:17.847Z,101167.86
2023-06-03T12:20:48.986Z,101163.64
2023-06-03T12:23:21.900Z,101163.02
2023-06-03T12:25:56.657Z,101164.81
2023-06-03T12:28:26.093Z,101163.89
2023-06-03T12:30:53.990Z,101161.66
2023-06-03T12:33:21.868Z,101167.36
2023-06-03T12:35:57.446Z,101167.33
2023-06-03T12:38:25.645Z,101162.23
2023-06-03T12:41:09.247Z,101159.13
2023-06-03T12:43:37.125Z,101152.66
2023-06-03T12:46:18.609Z,101142.88
2023-06-03T12:48:46.475Z,101141.52
2023-06-03T12:51:34.656Z,101138.64
2023-06-03T12:54:02.711Z,101137.16
2023-06-03T12:56:30.529Z,101133.11
2023-06-03T12:58:59.032Z,101130.48
2023-06-03T13:01:27.809Z,101132.27
2023-06-03T13:03:56.704Z,101131.91
2023-06-03T13:06:25.513Z,101131.17
2023-06-03T13:08:53.679Z,101128.48
2023-06-03T13:11:22.874Z,101128.36
2023-06-03T13:13:50.901Z,101130.75
2023-06-03T13:16:19.009Z,101125.42
2023-06-03T13:18:46.822Z,101124.45
2023-06-03T13:21:14.573Z,101121.56
2023-06-03T13:23:42.608Z,101121.53
2023-06-03T13:26:10.490Z,101123.64
2023-06-03T13:28:38.772Z,101122.98
2023-06-03T13:31:07.071Z,101124.27
2023-06-03T13:33:35.598Z,101124.69
2023-06-03T13:36:03.848Z,101118.91
2023-06-03T13:38:37.363Z,101111.73
2023-06-03T13:41:07.073Z,101110.70
2023-06-03T13:43:36.192Z,101109.27
2023-06-03T13:46:04.095Z,101106.94
2023-06-03T13:48:32.995Z,101104.73
2023-06-03T13:51:02.371Z,101104.97
2023-06-03T13:53:30.398Z,101101.34
2023-06-03T13:55:58.848Z,101102.28
2023-06-03T13:58:27.062Z,101103.01
2023-06-03T14:00:54.816Z,101097.53
2023-06-03T14:03:22.655Z,101092.90
2023-06-03T14:05:51.253Z,101091.96
2023-06-03T14:08:20.795Z,101090.09
2023-06-03T14:10:48.902Z,101088.23
2023-06-03T14:13:16.812Z,101086.15
2023-06-03T14:15:44.711Z,101085.57
2023-06-03T14:18:12.459Z,101087.24
2023-06-03T14:20:40.319Z,101085.13
2023-06-03T14:23:08.482Z,101081.07
2023-06-03T14:25:36.374Z,101081.70
2023-06-03T14:28:04.333Z,101077.66
2023-06-03T14:30:56.176Z,101079.60
2023-06-03T14:33:30.228Z,101079.23
2023-06-03T14:35:58.839Z,101076.54
2023-06-03T14:38:34.065Z,101073.39
2023-06-03T14:41:07.578Z,101076.41
2023-06-03T14:43:42.215Z,101077.58
2023-06-03T14:46:12.631Z,101072.52
2023-06-03T14:48:43.127Z,101070.23
2023-06-03T14:51:13.166Z,101071.95
2023-06-03T14:53:47.137Z,101071.80
2023-06-03T14:56:18.144Z,101070.34
2023-06-03T14:58:51.826Z,101066.98
2023-06-03T15:01:22.163Z,101068.27
2023-06-03T15:03:54.666Z,101062.64
2023-06-03T15:06:26.152Z,101066.60
2023-06-03T15:09:16.612Z,101065.62
2023-06-03T15:11:49.871Z,101061.77
2023-06-03T15:14:37.168Z,101064.89
2023-06-03T15:17:06.033Z,101065.99
2023-06-03T15:19:34.191Z,101062.95
2023-06-03T15:25:29.187Z,101067.49
2023-06-03T15:27:57.496Z,101069.66
2023-06-03T15:30:26.035Z,101067.49
2023-06-03T15:32:54.435Z,101062.85
2023-06-03T15:35:22.731Z,101059.56
2023-06-03T15:44:55.933Z,101063.45
2023-06-03T15:47:25.719Z,101060.34
2023-06-03T15:49:59.475Z,101053.36
2023-06-03T15:52:27.963Z,101045.13
2023-06-03T15:54:57.390Z,101034.36
2023-06-03T15:57:25.804Z,101026.57
2023-06-03T15:59:54.036Z,101023.88
2023-06-03T16:02:22.538Z,101013.86
2023-06-03T16:04:51.396Z,101008.95
2023-06-03T16:07:19.793Z,101009.30
2023-06-03T16:09:48.271Z,101007.87
2023-06-03T16:12:16.960Z,101000.38
2023-06-03T16:14:45.629Z,101002.38
2023-06-03T16:17:13.589Z,100996.81
2023-06-03T16:19:42.726Z,100999.05
2023-06-03T16:22:10.931Z,100990.47
2023-06-03T16:24:39.084Z,100988.86
2023-06-03T16:27:08.471Z,100987.23
2023-06-03T16:29:37.026Z,100987.70
2023-06-03T16:39:12.807Z,100975.94
2023-06-03T16:41:43.355Z,100976.91
2023-06-03T16:44:11.493Z,100976.27
2023-06-03T16:46:39.232Z,100974.33
2023-06-03T16:49:07.403Z,100975.63
2023-06-03T16:51:35.849Z,100979.02
2023-06-03T16:54:03.993Z,100980.50
2023-06-03T16:56:32.294Z,100977.20
2023-06-03T16:59:00.778Z,100981.29
2023-06-03T17:01:28.537Z,100974.63
2023-06-03T17:03:58.433Z,100976.60
2023-06-03T17:06:26.358Z,100979.33
2023-06-03T17:08:54.811Z,100978.86
2023-06-03T17:11:23.206Z,100978.25
2023-06-03T17:13:51.274Z,100976.74
2023-06-03T17:16:19.020Z,100973.52
2023-06-03T17:18:47.059Z,100970.30
2023-06-03T17:21:15.049Z,100968.79
2023-06-03T17:23:42.842Z,100962.54
2023-06-03T17:26:10.598Z,100964.26
2023-06-03T17:28:38.795Z,100959.10
2023-06-03T17:31:06.870Z,100958.33
2023-06-03T17:33:35.021Z,100957.02
2023-06-03T17:36:02.865Z,100956.67
2023-06-03T17:38:30.833Z,100958.77
2023-06-03T17:40:58.611Z,100959.53
2023-06-03T17:43:26.839Z,100962.13
2023-06-03T17:45:54.558Z,100964.20
2023-06-03T17:48:22.647Z,100962.95
2023-06-03T17:50:50.701Z,100962.00
2023-06-03T17:53:18.500Z,100957.09
2023-06-03T17:55:46.558Z,100952.20
2023-06-03T17:58:14.745Z,100953.34
2023-06-03T18:00:42.593Z,100948.30
2023-06-03T18:03:11.406Z,100947.42
2023-06-03T18:05:39.719Z,100947.37
2023-06-03T18:08:07.643Z,100948.14
2023-06-03T18:10:35.656Z,100949.20
2023-06-03T18:13:06.348Z,100951.92
2023-06-03T18:15:36.309Z,100949.57
2023-06-03T18:18:04.546Z,100952.44
2023-06-03T18:20:32.558Z,100957.27
2023-06-03T18:23:00.634Z,100956.20
2023-06-03T18:25:28.414Z,100956.68
2023-06-03T18:27:56.497Z,100958.33
2023-06-03T18:30:24.269Z,100958.09
2023-06-03T18:32:52.138Z,100959.39
2023-06-03T18:35:20.487Z,100966.33
2023-06-03T18:37:49.460Z,100962.84
2023-06-03T18:40:17.682Z,100964.17
2023-06-03T18:42:45.871Z,100965.33
2023-06-03T18:45:14.754Z,100966.02
2023-06-03T18:47:44.947Z,100968.52
2023-06-03T18:50:13.391Z,100968.23
2023-06-03T18:52:41.304Z,100968.94
2023-06-03T18:55:09.861Z,100965.80
2023-06-03T18:57:37.723Z,100969.17
2023-06-03T19:00:07.656Z,100963.85
2023-06-03T19:02:36.317Z,100963.23
2023-06-03T19:05:10.298Z,100960.17
2023-06-03T19:07:38.464Z,100959.30
2023-06-03T19:10:07.824Z,100959.27
2023-06-03T19:12:36.605Z,100960.95
2023-06-03T19:15:05.554Z,100959.74
2023-06-03T19:17:38.621Z,100963.59
2023-06-03T19:20:08.573Z,100966.39
2023-06-03T19:22:40.635Z,100973.06
2023-06-03T19:25:10.178Z,100975.75
2023-06-03T19:27:39.535Z,100975.58
2023-06-03T19:30:08.553Z,100974.92
2023-06-03T19:32:37.918Z,100974.27
2023-06-03T19:35:08.629Z,100974.30
2023-06-03T19:38:31.405Z,100973.56
2023-06-03T19:40:59.274Z,100974.95
2023-06-03T19:43:27.309Z,100974.08
2023-06-03T19:45:55.295Z,100979.55
2023-06-03T19:48:24.592Z,100984.08
2023-06-03T19:50:55.002Z,100987.79
2023-06-03T19:53:23.750Z,100991.90
2023-06-03T19:55:51.738Z,100992.76
2023-06-03T19:58:19.517Z,100996.45
2023-06-03T20:00:48.337Z,100998.89
2023-06-03T20:03:17.059Z,101005.83
2023-06-03T20:05:45.339Z,101007.31
2023-06-03T20:08:13.336Z,101009.40
2023-06-03T20:10:42.201Z,101010.83
2023-06-03T20:13:21.307Z,101013.36
2023-06-03T20:15:57.849Z,101013.24
2023-06-03T20:18:26.793Z,101016.15
2023-06-03T20:20:54.863Z,101016.14
2023-06-03T20:23:22.984Z,101019.09
2023-06-03T20:25:51.073Z,101017.87
2023-06-03T20:28:19.066Z,101016.13
2023-06-03T20:30:47.123Z,101020.26
2023-06-03T20:33:15.055Z,101016.31
2023-06-03T20:35:43.576Z,101019.48
2023-06-03T20:38:13.520Z,101021.40
2023-06-03T20:40:42.686Z,101019.92
2023-06-03T20:43:10.888Z,101021.80
2023-06-03T20:45:43.101Z,101025.30
2023-06-03T20:48:12.271Z,101027.19
2023-06-03T20:50:40.508Z,101027.98
2023-06-03T20:53:10.714Z,101029.27
2023-06-03T20:59:16.469Z,101032.45
2023-06-03T21:01:44.212Z,101029.73
2023-06-03T21:04:12.494Z,101031.13
2023-06-03T21:06:42.550Z,101033.81
2023-06-03T21:09:11.791Z,101033.40
2023-06-03T21:11:39.616Z,101033.52
2023-06-03T21:14:07.410Z,101036.17
2023-06-03T21:16:35.881Z,101040.32
2023-06-03T21:19:03.866Z,101041.42
2023-06-03T21:21:31.643Z,101043.44
2023-06-03T21:23:59.899Z,101040.45
2023-06-03T21:26:27.884Z,101043.59
2023-06-03T21:28:55.774Z,101047.34
2023-06-03T21:31:23.641Z,101047.04
2023-06-03T21:33:51.526Z,101049.36
2023-06-03T21:36:19.372Z,101052.52
2023-06-03T21:38:47.023Z,101055.40
2023-06-03T21:41:14.712Z,101052.21
2023-06-03T21:43:42.674Z,101055.34
2023-06-03T21:46:11.106Z,101057.23
2023-06-03T21:48:40.185Z,101056.52
2023-06-03T21:51:08.049Z,101056.79
2023-06-03T21:53:35.993Z,101054.73
2023-06-03T21:56:03.876Z,101052.47
2023-06-03T21:58:31.812Z,101053.08
2023-06-03T22:00:59.606Z,101048.93
2023-06-03T22:03:27.353Z,101052.02
2023-06-03T22:05:55.501Z,101053.26
2023-06-03T22:08:23.240Z,101054.09
2023-06-03T22:10:51.648Z,101052.70
2023-06-03T22:13:19.447Z,101054.26
2023-06-03T22:15:47.268Z,101054.80
2023-06-03T22:18:15.985Z,101057.71
2023-06-03T22:20:43.910Z,101058.73
2023-06-03T22:23:11.801Z,101053.85
2023-06-03T22:25:39.532Z,101054.83
2023-06-03T22:28:07.500Z,101053.30
2023-06-03T22:30:35.302Z,101049.82
2023-06-03T22:33:03.915Z,101047.63
2023-06-03T22:35:32.129Z,101049.87
2023-06-03T22:38:00.676Z,101051.11
2023-06-03T22:40:28.480Z,101050.59
2023-06-03T22:42:56.205Z,101054.67
2023-06-03T22:45:23.951Z,101053.82
2023-06-03T22:47:52.295Z,101057.20
2023-06-03T22:50:20.046Z,101053.30
2023-06-03T22:52:47.823Z,101056.80
2023-06-03T22:55:15.716Z,101055.86
2023-06-03T22:57:43.527Z,101054.24
2023-06-03T23:00:12.369Z,101052.13
2023-06-03T23:02:40.399Z,101050.94
2023-06-03T23:05:08.624Z,101052.54
2023-06-03T23:07:36.589Z,101051.31
2023-06-03T23:10:04.692Z,101050.21
2023-06-03T23:12:32.562Z,101048.54
2023-06-03T23:15:00.422Z,101048.67
2023-06-03T23:17:28.253Z,101050.02
2023-06-03T23:19:56.004Z,101050.52
2023-06-03T23:22:23.735Z,101053.33
2023-06-03T23:24:51.517Z,101048.02
2023-06-03T23:27:19.333Z,101046.05
2023-06-03T23:29:47.389Z,101049.19
2023-06-03T23:32:15.116Z,101050.48
2023-06-03T23:34:42.890Z,101050.16
2023-06-03T23:37:10.818Z,101047.33
2023-06-03T23:39:38.506Z,101043.18
2023-06-03T23:42:07.982Z,101046.42
2023-06-03T23:44:35.733Z,101047.42
2023-06-03T23:47:03.641Z,101045.16
2023-06-03T23:49:31.309Z,101045.51
2023-06-03T23:51:59.114Z,101045.56
2023-06-03T23:54:27.032Z,101040.52
2023-06-03T23:56:54.850Z,101042.30
2023-06-03T23:59:22.517Z,101045.48
